Time;durP1;ratioP1;P1;durP2;ratioP2;P2;SDS_P1;SDS_P2;PMS_P1;PMS_P2;Temp;Humidity;BMP_temperature;BMP_pressure;BME280_temperature;BME280_humidity;BME280_pressure;Samples;Min_cycle;Max_cycle;Signal;HPM_P1;HPM_P2
2022/04/15 00:08:40;;;;;;;7.8;11.1;;;;;;;11.9;45.1;98850;;;;
2022/04/15 00:18:39;;;;;;;8.7;12.6;;;;;;;11.8;46.8;98860;;;;
2022/04/15 00:29:39;;;;;;;8.7;12.6;;;;;;;11.5;50.4;98840;;;;
2022/04/15 00:40:39;;;;;;;8.7;12.6;;;;;;;11.5;50.1;98830;;;;
2022/04/15 00:50:40;;;;;;;12.2;18.7;;;;;;;11.6;47.5;98840;;;;
2022/04/15 01:01:41;;;;;;;12.2;18.7;;;;;;;11.5;47.5;98840;;;;
2022/04/15 01:11:39;;;;;;;12.2;18.7;;;;;;;11.6;47.2;98840;;;;
2022/04/15 01:22:39;;;;;;;7.5;10.8;;;;;;;11.9;45.5;98830;;;;
2022/04/15 01:33:39;;;;;;;7.5;10.8;;;;;;;11.8;46;98830;;;;
2022/04/15 01:44:39;;;;;;;7.5;10.8;;;;;;;11.9;47.9;98830;;;;
2022/04/15 01:54:39;;;;;;;7.4;11.4;;;;;;;11.9;47.4;98840;;;;
2022/04/15 02:05:39;;;;;;;7.4;11.4;;;;;;;12.1;48.9;98830;;;;
2022/04/15 02:15:39;;;;;;;7.4;11.4;;;;;;;12.2;50.7;98830;;;;
2022/04/15 02:26:39;;;;;;;7.8;11.9;;;;;;;12.3;52.3;98840;;;;
2022/04/15 02:37:39;;;;;;;7.8;11.9;;;;;;;12.4;55.8;98830;;;;
2022/04/15 02:47:39;;;;;;;14.8;18.1;;;;;;;12.4;58.3;98840;;;;
2022/04/15 02:57:39;;;;;;;14.8;18.1;;;;;;;12.3;59.6;98840;;;;
2022/04/15 03:08:39;;;;;;;14.8;18.1;;;;;;;12.4;61.2;98850;;;;
2022/04/15 03:18:39;;;;;;;20.5;24.7;;;;;;;12.3;62;98850;;;;
2022/04/15 03:28:39;;;;;;;20.5;24.7;;;;;;;12.2;62.6;98870;;;;
2022/04/15 03:39:39;;;;;;;20.5;24.7;;;;;;;12.2;62.8;98870;;;;
2022/04/15 03:50:39;;;;;;;24;29;;;;;;;12.2;64.6;98870;;;;
2022/04/15 04:00:39;;;;;;;24;29;;;;;;;12.1;64.8;98890;;;;
2022/04/15 04:10:39;;;;;;;24;29;;;;;;;12;65.5;98900;;;;
2022/04/15 04:21:39;;;;;;;25.8;31.9;;;;;;;12.1;65.5;98920;;;;
2022/04/15 04:31:39;;;;;;;25.8;31.9;;;;;;;12.1;65.8;98930;;;;
2022/04/15 04:42:40;;;;;;;25.8;31.9;;;;;;;12.1;66;98930;;;;
2022/04/15 04:52:39;;;;;;;26.8;32.5;;;;;;;12.1;66.4;98950;;;;
2022/04/15 05:03:40;;;;;;;26.8;32.5;;;;;;;12.2;67;98950;;;;
2022/04/15 05:13:39;;;;;;;26.8;32.5;;;;;;;12.2;67.6;98950;;;;
2022/04/15 05:23:39;;;;;;;25;30.1;;;;;;;12.2;68;98970;;;;
2022/04/15 05:34:42;;;;;;;25;30.1;;;;;;;12.2;68.9;98980;;;;
2022/04/15 05:44:39;;;;;;;25;30.1;;;;;;;12.1;70.2;98980;;;;
2022/04/15 05:54:39;;;;;;;22.6;25.4;;;;;;;12;70.8;98960;;;;
2022/04/15 06:04:39;;;;;;;22.6;25.4;;;;;;;12;71.7;98990;;;;
2022/04/15 06:14:39;;;;;;;22.6;25.4;;;;;;;12;72.3;98980;;;;
2022/04/15 06:24:39;;;;;;;20.7;25.2;;;;;;;12;73.4;98980;;;;
2022/04/15 06:35:39;;;;;;;20.7;25.2;;;;;;;12.1;74.1;98990;;;;
2022/04/15 06:46:40;;;;;;;20.7;25.6;;;;;;;12;75.5;98990;;;;
2022/04/15 06:57:39;;;;;;;20.7;25.6;;;;;;;12;75.6;98990;;;;
2022/04/15 07:07:39;;;;;;;20.7;25.6;;;;;;;12.1;76.2;98990;;;;
2022/04/15 07:17:39;;;;;;;20.9;23.6;;;;;;;12.3;75.4;98990;;;;
2022/04/15 07:27:39;;;;;;;20.9;23.6;;;;;;;12.5;75.1;98990;;;;
2022/04/15 07:38:39;;;;;;;20.9;23.6;;;;;;;12.7;75.1;99010;;;;
2022/04/15 07:48:39;;;;;;;31.8;36.6;;;;;;;12.8;75.1;99020;;;;
2022/04/15 07:59:39;;;;;;;31.8;36.6;;;;;;;12.9;75.1;99030;;;;
2022/04/15 08:10:40;;;;;;;31.8;36.6;;;;;;;12.7;75.3;99020;;;;
2022/04/15 08:20:39;;;;;;;32;38.9;;;;;;;12.6;75.6;99030;;;;
2022/04/15 08:31:39;;;;;;;32;38.9;;;;;;;12.6;75.6;99030;;;;
2022/04/15 08:42:40;;;;;;;32;38.9;;;;;;;12.5;76.5;99040;;;;
2022/04/15 08:52:39;;;;;;;29.4;34.9;;;;;;;12.3;77.8;99040;;;;
2022/04/15 09:03:39;;;;;;;29.4;34.9;;;;;;;12.3;79.1;99040;;;;
2022/04/15 09:13:39;;;;;;;29.4;34.9;;;;;;;12.4;79.9;99040;;;;
2022/04/15 09:23:39;;;;;;;30.2;33.8;;;;;;;12.5;80.6;99030;;;;
2022/04/15 09:34:39;;;;;;;30.2;33.8;;;;;;;12.7;80.2;99020;;;;
2022/04/15 09:44:39;;;;;;;30.2;33.8;;;;;;;12.6;79.4;99020;;;;
2022/04/15 09:55:40;;;;;;;22.3;27.6;;;;;;;12.7;80.2;99010;;;;
2022/04/15 10:05:39;;;;;;;22.3;27.6;;;;;;;12.6;80.9;99010;;;;
2022/04/15 10:15:39;;;;;;;22.3;27.6;;;;;;;12.7;80.5;99020;;;;
2022/04/15 10:26:39;;;;;;;20.6;24.5;;;;;;;12.8;80.7;99020;;;;
2022/04/15 10:37:39;;;;;;;20.6;24.5;;;;;;;12.9;81;99020;;;;
2022/04/15 10:48:39;;;;;;;16.9;20.8;;;;;;;13;80.8;99010;;;;
2022/04/15 11:01:13;;;;;;;16.9;20.8;;;;;;;13.4;79.6;99020;;;;
2022/04/15 11:09:39;;;;;;;16.9;20.8;;;;;;;13.6;78.6;99010;;;;
2022/04/15 11:19:40;;;;;;;16.9;22.9;;;;;;;13.9;77.8;99010;;;;
2022/04/15 11:30:40;;;;;;;16.9;22.9;;;;;;;14.4;75.4;99010;;;;
2022/04/15 11:41:39;;;;;;;16.9;22.9;;;;;;;14.1;75.1;99000;;;;
2022/04/15 11:51:39;;;;;;;16.8;20.1;;;;;;;14;76;99000;;;;
2022/04/15 12:02:39;;;;;;;16.8;20.1;;;;;;;14.2;74.7;99000;;;;
2022/04/15 12:12:40;;;;;;;16.8;20.1;;;;;;;15.2;72.7;98980;;;;
2022/04/15 12:22:39;;;;;;;15.4;19.9;;;;;;;15.7;70.1;98980;;;;
2022/04/15 12:33:39;;;;;;;15.4;19.9;;;;;;;16.3;68.1;98950;;;;
2022/04/15 12:44:39;;;;;;;15.4;19.9;;;;;;;16.3;67.1;98950;;;;
2022/04/15 12:54:39;;;;;;;13.1;15.8;;;;;;;16.7;66.1;98940;;;;
2022/04/15 13:04:40;;;;;;;13.1;15.8;;;;;;;17.1;64.7;98930;;;;
2022/04/15 13:15:40;;;;;;;13.1;15.8;;;;;;;16.5;64.6;98900;;;;
2022/04/15 13:25:39;;;;;;;10.3;12.7;;;;;;;16.8;65.4;98900;;;;
2022/04/15 13:36:39;;;;;;;10.3;12.7;;;;;;;17.1;61.2;98900;;;;
2022/04/15 13:46:40;;;;;;;9.4;12.8;;;;;;;17.3;59.5;98880;;;;
2022/04/15 13:56:41;;;;;;;9.4;12.8;;;;;;;18;59.9;98860;;;;
2022/04/15 14:07:40;;;;;;;9.4;12.8;;;;;;;18.8;55.9;98860;;;;
2022/04/15 14:18:40;;;;;;;7.6;9.9;;;;;;;17.1;55.7;98890;;;;
2022/04/15 14:28:40;;;;;;;7.6;9.9;;;;;;;15.8;60.8;98880;;;;
2022/04/15 14:39:40;;;;;;;7.6;9.9;;;;;;;14.2;67.9;98910;;;;
2022/04/15 14:49:40;;;;;;;5.1;8.4;;;;;;;13.4;73.5;98920;;;;
2022/04/15 15:00:41;;;;;;;5.1;8.4;;;;;;;13;73.3;98940;;;;
2022/04/15 15:10:40;;;;;;;5.1;8.4;;;;;;;12.6;73.8;98950;;;;
2022/04/15 15:21:42;;;;;;;8.4;11;;;;;;;12.6;71;98960;;;;
2022/04/15 15:31:40;;;;;;;8.4;11;;;;;;;12.4;71.7;98960;;;;
2022/04/15 15:41:40;;;;;;;8.4;11;;;;;;;11.9;70.9;98980;;;;
2022/04/15 15:51:40;;;;;;;2.7;4.4;;;;;;;11.9;71.8;98990;;;;
2022/04/15 16:02:42;;;;;;;2.7;4.4;;;;;;;11.8;73.4;99000;;;;
2022/04/15 16:13:40;;;;;;;2.7;4.4;;;;;;;11.7;74.1;99010;;;;
2022/04/15 16:24:40;;;;;;;10;16.3;;;;;;;11.7;75.4;99010;;;;
2022/04/15 16:34:40;;;;;;;10;16.3;;;;;;;11.6;76;99010;;;;
2022/04/15 16:44:40;;;;;;;10;16.3;;;;;;;11.4;77.2;99020;;;;
2022/04/15 17:06:40;;;;;;;15.1;17.5;;;;;;;11.3;78.8;99020;;;;
2022/04/15 17:16:40;;;;;;;19.6;24.4;;;;;;;11.2;79.6;99030;;;;
2022/04/15 17:27:40;;;;;;;19.6;24.4;;;;;;;11.1;79.7;99040;;;;
2022/04/15 17:37:40;;;;;;;19.6;24.4;;;;;;;11.1;79.8;99040;;;;
2022/04/15 17:48:42;;;;;;;23.3;28.6;;;;;;;11;79.9;99040;;;;
2022/04/15 17:58:40;;;;;;;23.3;28.6;;;;;;;11;79.6;99050;;;;
2022/04/15 18:08:40;;;;;;;23.3;28.6;;;;;;;10.9;79.4;99050;;;;
2022/04/15 18:19:40;;;;;;;16.9;21.6;;;;;;;10.9;79.4;99060;;;;
2022/04/15 18:30:40;;;;;;;16.9;21.6;;;;;;;10.9;79.7;99070;;;;
2022/04/15 18:41:40;;;;;;;16.9;21.6;;;;;;;10.8;79.9;99080;;;;
2022/04/15 18:52:40;;;;;;;19.5;24.9;;;;;;;10.8;80.3;99080;;;;
2022/04/15 19:02:40;;;;;;;19.5;24.9;;;;;;;10.7;80.7;99090;;;;
2022/04/15 19:13:40;;;;;;;19.5;24.9;;;;;;;10.7;81;99100;;;;
2022/04/15 19:23:40;;;;;;;50.7;63.3;;;;;;;10.5;81.7;99090;;;;
2022/04/15 19:33:40;;;;;;;50.7;63.3;;;;;;;10.4;81.6;99100;;;;
2022/04/15 19:43:40;;;;;;;50.7;63.3;;;;;;;10.3;81.3;99090;;;;
2022/04/15 19:54:41;;;;;;;28.8;42.4;;;;;;;10.1;81.3;99080;;;;
2022/04/15 20:04:40;;;;;;;28.8;42.4;;;;;;;10.1;81.7;99090;;;;
2022/04/15 20:14:40;;;;;;;28.8;42.4;;;;;;;10;82.2;99090;;;;
2022/04/15 20:24:42;;;;;;;22.8;32.1;;;;;;;10;82.9;99090;;;;
2022/04/15 20:35:40;;;;;;;22.8;32.1;;;;;;;10;82.7;99100;;;;
2022/04/15 20:45:40;;;;;;;28.7;39.7;;;;;;;10;82.1;99090;;;;
2022/04/15 20:56:40;;;;;;;28.7;39.7;;;;;;;9.9;81.4;99080;;;;
2022/04/15 21:06:40;;;;;;;28.7;39.7;;;;;;;9.7;81.2;99080;;;;
2022/04/15 21:17:40;;;;;;;23.8;30.9;;;;;;;9.6;81.3;99080;;;;
2022/04/15 21:27:40;;;;;;;23.8;30.9;;;;;;;9.6;81.5;99070;;;;
2022/04/15 21:38:41;;;;;;;23.8;30.9;;;;;;;9.5;81.4;99070;;;;
2022/04/15 21:49:40;;;;;;;23.4;26.9;;;;;;;9.4;81.6;99070;;;;
2022/04/15 22:00:41;;;;;;;23.4;26.9;;;;;;;9.2;80.9;99070;;;;
2022/04/15 22:10:40;;;;;;;23.4;26.9;;;;;;;9;80.2;99070;;;;
2022/04/15 22:21:40;;;;;;;21.9;29.6;;;;;;;8.9;80.1;99080;;;;
2022/04/15 22:31:40;;;;;;;21.9;29.6;;;;;;;8.8;79.1;99090;;;;
2022/04/15 22:42:40;;;;;;;21.9;29.6;;;;;;;8.8;79.6;99100;;;;
2022/04/15 22:52:40;;;;;;;17.1;25;;;;;;;8.7;79.8;99100;;;;
2022/04/15 23:03:42;;;;;;;17.1;25;;;;;;;8.6;80.3;99100;;;;
2022/04/15 23:13:40;;;;;;;17.1;25;;;;;;;8.6;80.3;99090;;;;
2022/04/15 23:23:40;;;;;;;15.2;20.1;;;;;;;8.5;80.5;99090;;;;
2022/04/15 23:34:42;;;;;;;15.2;20.1;;;;;;;8.4;80.4;99090;;;;
2022/04/15 23:44:40;;;;;;;15.2;20.1;;;;;;;8.3;80.3;99100;;;;
2022/04/15 23:54:40;;;;;;;18.2;22.8;;;;;;;8.3;80.5;99100;;;;
